Time;durP1;ratioP1;P1;durP2;ratioP2;P2;SDS_P1;SDS_P2;PMS_P1;PMS_P2;Temp;Humidity;BMP_temperature;BMP_pressure;BME280_temperature;BME280_humidity;BME280_pressure;Samples;Min_cycle;Max_cycle;Signal;HPM_P1;HPM_P2
2022/01/11 00:01:40;;;;;;;26.73;13.65;;;3.40;71.70;;;;;;5106085;27;46425;-66
2022/01/11 00:04:07;;;;;;;29.95;16.38;;;3.30;72.20;;;;;;5105604;27;46378;-65
2022/01/11 00:06:39;;;;;;;29.17;14.73;;;3.30;72.20;;;;;;5108641;27;46298;-67
2022/01/11 00:09:19;;;;;;;24.30;13.35;;;3.30;72.20;;;;;;5108563;27;46378;-66
2022/01/11 00:11:51;;;;;;;28.23;14.60;;;3.30;72.20;;;;;;5101847;27;46613;-66
2022/01/11 00:14:18;;;;;;;31.00;16.35;;;3.20;72.10;;;;;;5094607;27;46399;-67
2022/01/11 00:16:46;;;;;;;24.27;13.80;;;3.20;72.10;;;;;;5108635;27;46379;-67
2022/01/11 00:19:13;;;;;;;27.30;14.85;;;3.20;72.10;;;;;;5104729;27;46359;-66
2022/01/11 00:21:45;;;;;;;45.15;14.80;;;3.10;72.00;;;;;;5103430;27;46378;-66
2022/01/11 00:24:28;;;;;;;27.15;13.70;;;3.10;72.00;;;;;;5104358;27;45846;-64
2022/01/11 00:26:54;;;;;;;21.88;13.52;;;3.10;72.00;;;;;;5103489;27;46084;-66
2022/01/11 00:29:20;;;;;;;31.23;16.25;;;3.00;72.00;;;;;;5106338;27;48037;-67
2022/01/11 00:31:47;;;;;;;23.40;12.80;;;3.00;71.90;;;;;;5110168;27;46474;-67
2022/01/11 00:34:15;;;;;;;30.05;13.57;;;3.00;72.80;;;;;;5112024;27;46341;-67
2022/01/11 00:36:42;;;;;;;27.00;15.15;;;2.90;72.80;;;;;;5103182;27;46330;-66
2022/01/11 00:39:12;;;;;;;30.75;14.38;;;2.90;72.90;;;;;;5104589;27;48879;-67
2022/01/11 00:41:39;;;;;;;28.80;13.93;;;2.90;73.10;;;;;;5091941;27;46403;-65
2022/01/11 00:44:06;;;;;;;32.60;15.05;;;2.90;73.20;;;;;;5106484;27;46297;-66
2022/01/11 00:46:33;;;;;;;33.72;14.55;;;2.90;73.50;;;;;;5102147;27;46387;-65
2022/01/11 00:48:58;;;;;;;34.97;15.30;;;2.90;73.50;;;;;;5104654;27;47209;-67
2022/01/11 00:51:24;;;;;;;29.70;15.03;;;2.90;73.50;;;;;;5104811;27;46317;-66
2022/01/11 00:53:51;;;;;;;28.73;14.63;;;2.90;73.50;;;;;;5104976;27;46486;-66
2022/01/11 00:56:17;;;;;;;30.27;15.57;;;2.90;73.80;;;;;;5101918;27;46332;-66
2022/01/11 00:58:43;;;;;;;27.27;14.17;;;2.80;73.80;;;;;;5102381;27;46397;-65
2022/01/11 01:01:09;;;;;;;35.47;14.70;;;2.90;74.00;;;;;;5103471;27;46325;-66
2022/01/11 01:03:35;;;;;;;34.30;15.63;;;2.90;73.70;;;;;;5105933;27;46547;-66
2022/01/11 01:06:01;;;;;;;31.60;14.30;;;2.90;73.90;;;;;;5103768;27;46316;-65
2022/01/11 01:08:27;;;;;;;34.05;14.73;;;2.80;74.20;;;;;;5119026;27;46307;-65
2022/01/11 01:10:53;;;;;;;38.33;16.48;;;2.80;74.50;;;;;;5107255;27;46608;-66
2022/01/11 01:13:28;;;;;;;39.13;16.27;;;2.70;74.60;;;;;;5107153;27;46490;-65
2022/01/11 01:15:55;;;;;;;40.83;17.10;;;2.70;74.80;;;;;;5119848;27;46548;-66
2022/01/11 01:18:33;;;;;;;37.85;16.35;;;2.70;74.90;;;;;;5106290;27;48140;-64
2022/01/11 01:20:59;;;;;;;30.80;15.88;;;2.70;74.90;;;;;;5102153;27;46584;-66
2022/01/11 01:23:26;;;;;;;30.80;16.15;;;2.70;75.10;;;;;;5102712;27;46291;-66
2022/01/11 01:25:51;;;;;;;31.85;15.30;;;2.70;75.00;;;;;;5103659;27;46497;-67
2022/01/11 01:28:18;;;;;;;31.50;15.10;;;2.70;75.10;;;;;;5103248;27;46380;-66
2022/01/11 01:30:44;;;;;;;40.28;16.17;;;2.80;74.80;;;;;;5102427;27;46383;-66
2022/01/11 01:33:10;;;;;;;31.55;16.45;;;2.80;74.90;;;;;;5104846;27;46514;-66
2022/01/11 01:35:39;;;;;;;33.20;16.65;;;2.80;74.70;;;;;;5092199;27;46371;-65
2022/01/11 01:38:10;;;;;;;35.95;18.10;;;2.80;74.80;;;;;;5103652;27;48162;-64
2022/01/11 01:40:46;;;;;;;30.55;15.52;;;2.70;75.10;;;;;;5111588;27;46498;-66
2022/01/11 01:43:13;;;;;;;35.53;15.15;;;2.80;75.10;;;;;;5103335;27;46396;-66
2022/01/11 01:45:43;;;;;;;37.65;18.48;;;2.80;74.90;;;;;;5102845;27;46534;-68
2022/01/11 01:48:09;;;;;;;43.80;17.95;;;2.90;74.80;;;;;;5103717;27;46175;-65
2022/01/11 01:50:35;;;;;;;37.80;15.93;;;2.90;74.80;;;;;;5102105;27;46365;-65
2022/01/11 01:53:04;;;;;;;32.97;17.13;;;2.80;75.10;;;;;;5102552;27;46488;-66
2022/01/11 01:55:30;;;;;;;31.67;17.10;;;2.90;75.10;;;;;;5109918;27;46382;-65
2022/01/11 01:57:59;;;;;;;38.30;16.20;;;3.00;74.80;;;;;;5101648;27;47290;-66
2022/01/11 02:00:27;;;;;;;33.28;16.83;;;3.00;74.80;;;;;;5093013;27;46453;-65
2022/01/11 02:03:03;;;;;;;30.80;15.60;;;2.90;74.90;;;;;;5102182;27;45783;-65
2022/01/11 02:05:29;;;;;;;35.75;16.00;;;3.00;74.90;;;;;;5101611;27;46499;-65
2022/01/11 02:07:55;;;;;;;30.00;16.30;;;3.10;74.80;;;;;;5102545;27;47920;-66
2022/01/11 02:10:21;;;;;;;37.05;16.67;;;3.10;74.60;;;;;;5102070;27;46402;-65
2022/01/11 02:12:47;;;;;;;34.70;15.77;;;3.10;74.30;;;;;;5113544;27;46326;-64
2022/01/11 02:15:13;;;;;;;40.90;17.05;;;3.10;74.50;;;;;;5103109;27;46342;-66
2022/01/11 02:17:39;;;;;;;33.60;16.13;;;3.00;74.70;;;;;;5101596;27;47920;-65
2022/01/11 02:20:05;;;;;;;33.00;16.90;;;3.00;75.00;;;;;;5105584;27;46474;-67
2022/01/11 02:22:31;;;;;;;35.25;18.77;;;3.00;75.00;;;;;;5103477;27;46427;-65
2022/01/11 02:24:59;;;;;;;37.00;18.27;;;3.00;75.20;;;;;;5102750;27;46349;-67
2022/01/11 02:27:25;;;;;;;31.45;15.77;;;2.90;75.40;;;;;;5102639;27;46412;-66
2022/01/11 02:29:52;;;;;;;38.33;16.45;;;2.90;75.70;;;;;;5102736;27;45770;-68
2022/01/11 02:32:18;;;;;;;37.53;17.73;;;2.80;75.80;;;;;;5093102;27;46441;-66
2022/01/11 02:34:44;;;;;;;32.37;16.30;;;2.80;76.00;;;;;;5111127;27;46464;-66
2022/01/11 02:37:09;;;;;;;33.70;16.37;;;2.80;76.40;;;;;;5111371;27;47944;-66
2022/01/11 02:39:35;;;;;;;37.80;15.93;;;2.80;76.50;;;;;;5102032;27;46511;-66
2022/01/11 02:42:02;;;;;;;34.35;15.45;;;2.80;76.40;;;;;;5104425;27;46486;-66
2022/01/11 02:44:27;;;;;;;30.85;16.85;;;2.80;76.30;;;;;;5101971;27;46360;-66
2022/01/11 02:46:53;;;;;;;39.63;17.20;;;2.80;76.40;;;;;;5101006;27;47957;-66
2022/01/11 02:49:19;;;;;;;37.47;17.37;;;2.80;76.30;;;;;;5100825;27;46357;-66
2022/01/11 02:51:45;;;;;;;31.43;15.90;;;2.90;76.20;;;;;;5101256;27;45767;-65
2022/01/11 02:54:11;;;;;;;38.60;17.60;;;2.90;76.10;;;;;;5118189;27;46705;-66
2022/01/11 02:56:40;;;;;;;32.77;16.37;;;3.00;75.90;;;;;;5103714;27;46310;-64
2022/01/11 02:59:05;;;;;;;36.90;18.58;;;3.00;77.10;;;;;;5101536;27;46456;-65
2022/01/11 03:01:31;;;;;;;35.57;16.40;;;3.00;75.80;;;;;;5100600;27;45838;-65
2022/01/11 03:03:58;;;;;;;43.53;17.70;;;3.10;75.60;;;;;;5092133;27;46442;-66
2022/01/11 03:06:26;;;;;;;31.85;16.08;;;3.20;75.40;;;;;;5101830;27;47940;-66
2022/01/11 03:08:52;;;;;;;38.40;17.67;;;3.20;75.20;;;;;;5101256;27;46345;-66
2022/01/11 03:11:21;;;;;;;35.43;16.73;;;3.20;75.20;;;;;;5099900;27;46428;-67
2022/01/11 03:13:48;;;;;;;33.78;16.67;;;3.20;75.40;;;;;;5102218;27;46590;-66
2022/01/11 03:16:17;;;;;;;32.45;16.88;;;3.20;75.40;;;;;;5107068;27;48009;-67
2022/01/11 03:18:44;;;;;;;31.88;16.13;;;3.10;75.60;;;;;;5105036;27;46471;-64
2022/01/11 03:21:12;;;;;;;34.22;16.17;;;3.10;75.80;;;;;;5105475;27;46385;-65
2022/01/11 03:23:39;;;;;;;32.58;14.93;;;3.10;75.80;;;;;;5104501;27;46368;-65
2022/01/11 03:26:04;;;;;;;34.17;15.68;;;3.10;75.60;;;;;;5095460;27;46414;-64
2022/01/11 03:28:31;;;;;;;35.10;16.03;;;3.10;75.30;;;;;;5102703;27;46315;-67
2022/01/11 03:30:57;;;;;;;21.95;13.05;;;3.10;75.30;;;;;;5094259;27;46239;-64
2022/01/11 03:33:23;;;;;;;27.80;14.90;;;3.20;75.30;;;;;;5102735;27;46285;-65
2022/01/11 03:35:50;;;;;;;28.37;14.60;;;3.20;75.40;;;;;;5108027;27;48663;-66
2022/01/11 03:38:16;;;;;;;26.77;15.13;;;3.20;75.20;;;;;;5109383;27;46487;-66
2022/01/11 03:40:43;;;;;;;27.40;14.18;;;3.10;75.20;;;;;;5107633;27;46351;-65
2022/01/11 03:43:10;;;;;;;29.52;15.02;;;3.10;75.40;;;;;;5106167;27;46437;-66
2022/01/11 03:45:36;;;;;;;30.05;14.32;;;3.10;75.30;;;;;;5108568;27;47108;-67
2022/01/11 03:48:03;;;;;;;32.60;14.43;;;3.10;75.40;;;;;;5108716;27;46383;-66
2022/01/11 03:50:32;;;;;;;26.70;15.45;;;3.20;75.40;;;;;;5106322;27;46351;-66
2022/01/11 03:53:06;;;;;;;30.58;13.60;;;3.10;75.40;;;;;;5102996;27;46307;-66
2022/01/11 03:55:44;;;;;;;26.83;14.38;;;3.20;75.20;;;;;;5103936;27;47986;-66
2022/01/11 03:58:12;;;;;;;34.60;15.60;;;3.10;75.30;;;;;;5104775;27;46336;-66
2022/01/11 04:00:38;;;;;;;26.90;14.30;;;3.10;75.60;;;;;;5100082;27;46364;-65
2022/01/11 04:03:05;;;;;;;25.02;14.00;;;3.10;75.40;;;;;;5109008;27;46555;-66
2022/01/11 04:05:32;;;;;;;26.83;13.50;;;3.10;75.30;;;;;;5107962;27;46457;-66
2022/01/11 04:07:58;;;;;;;33.10;13.77;;;3.10;75.50;;;;;;5110707;27;46447;-66
2022/01/11 04:10:24;;;;;;;31.75;14.50;;;3.10;75.30;;;;;;5105694;27;46344;-66
2022/01/11 04:12:52;;;;;;;25.17;13.00;;;3.20;75.20;;;;;;5104485;27;46309;-65
2022/01/11 04:15:18;;;;;;;35.13;15.43;;;3.20;75.20;;;;;;5112946;27;48743;-65
2022/01/11 04:17:44;;;;;;;31.10;13.77;;;3.20;75.20;;;;;;5105034;27;45922;-67
2022/01/11 04:20:10;;;;;;;33.50;15.10;;;3.20;75.00;;;;;;5103410;27;46567;-66
2022/01/11 04:22:36;;;;;;;31.40;15.80;;;3.20;75.00;;;;;;5102305;27;46444;-67
2022/01/11 04:25:03;;;;;;;23.37;13.13;;;3.20;74.90;;;;;;5104302;27;48624;-67
2022/01/11 04:27:28;;;;;;;27.13;13.90;;;3.20;74.90;;;;;;5106540;27;46438;-66
2022/01/11 04:29:54;;;;;;;32.53;13.93;;;3.20;74.90;;;;;;5105778;27;46325;-66
2022/01/11 04:32:20;;;;;;;32.00;13.93;;;3.30;74.90;;;;;;5105270;27;45973;-66
2022/01/11 04:34:45;;;;;;;28.83;13.57;;;3.20;75.10;;;;;;5094945;27;47216;-67
2022/01/11 04:37:11;;;;;;;32.17;16.40;;;3.20;75.30;;;;;;5107881;27;46599;-67
2022/01/11 04:39:37;;;;;;;41.00;20.33;;;3.20;75.10;;;;;;5109492;27;46317;-67
2022/01/11 04:42:03;;;;;;;40.90;18.80;;;3.20;75.40;;;;;;5107033;27;46203;-65
2022/01/11 04:44:29;;;;;;;53.77;23.90;;;3.20;75.20;;;;;;5103011;27;48684;-67
2022/01/11 04:46:55;;;;;;;36.10;17.63;;;3.30;74.90;;;;;;5106642;27;46482;-66
2022/01/11 04:49:21;;;;;;;38.83;19.90;;;3.20;75.00;;;;;;5108152;27;46410;-66
2022/01/11 04:51:47;;;;;;;31.90;17.23;;;3.30;75.10;;;;;;5105287;27;46618;-67
2022/01/11 04:54:15;;;;;;;43.83;17.10;;;3.20;75.40;;;;;;5102374;27;46479;-66
2022/01/11 04:56:40;;;;;;;37.97;16.90;;;3.10;75.60;;;;;;5106290;27;46350;-66
2022/01/11 04:59:06;;;;;;;31.33;14.90;;;3.10;75.40;;;;;;5105097;27;46273;-66
2022/01/11 05:01:32;;;;;;;31.80;15.47;;;3.20;75.50;;;;;;5106219;27;46519;-67
2022/01/11 05:04:03;;;;;;;32.40;17.53;;;3.10;75.40;;;;;;5106522;27;47741;-66
2022/01/11 05:06:29;;;;;;;35.50;16.95;;;3.10;75.70;;;;;;5101556;27;46391;-67
2022/01/11 05:08:54;;;;;;;34.43;17.17;;;3.10;75.80;;;;;;5104210;27;46549;-66
2022/01/11 05:11:22;;;;;;;33.07;16.73;;;3.20;75.20;;;;;;5105106;27;46020;-66
2022/01/11 05:13:48;;;;;;;36.67;18.40;;;3.30;74.90;;;;;;5100742;27;48795;-66
2022/01/11 05:16:14;;;;;;;37.20;16.40;;;3.40;74.70;;;;;;5102235;27;46468;-66
2022/01/11 05:18:40;;;;;;;33.10;15.43;;;3.30;75.20;;;;;;5101741;27;45955;-67
2022/01/11 05:21:06;;;;;;;29.30;16.50;;;3.30;75.30;;;;;;5104144;27;46526;-66
2022/01/11 05:23:34;;;;;;;33.37;17.33;;;3.20;75.50;;;;;;5104689;27;46415;-67
2022/01/11 05:26:01;;;;;;;35.42;16.70;;;3.10;75.60;;;;;;5102418;27;46375;-67
2022/01/11 05:28:27;;;;;;;34.58;16.35;;;3.10;75.80;;;;;;5106233;27;46295;-68
2022/01/11 05:30:55;;;;;;;31.47;15.83;;;3.10;75.80;;;;;;5103586;27;45895;-66
2022/01/11 05:33:23;;;;;;;34.78;16.55;;;3.10;75.70;;;;;;5101988;27;47947;-66
2022/01/11 05:35:49;;;;;;;27.80;14.77;;;3.10;75.70;;;;;;5103814;27;46410;-66
2022/01/11 05:38:15;;;;;;;29.33;16.33;;;3.20;75.30;;;;;;5102024;27;46400;-67
2022/01/11 05:40:41;;;;;;;34.38;16.60;;;3.20;75.10;;;;;;5103407;27;46519;-67
2022/01/11 05:43:06;;;;;;;27.73;14.90;;;3.10;75.20;;;;;;5103565;27;48003;-65
2022/01/11 05:45:32;;;;;;;31.67;15.47;;;3.20;75.20;;;;;;5101920;27;46413;-67
2022/01/11 05:48:00;;;;;;;33.80;16.57;;;3.10;75.30;;;;;;5101768;27;46384;-66
2022/01/11 05:50:26;;;;;;;40.83;16.88;;;3.10;75.30;;;;;;5106748;27;46569;-65
2022/01/11 05:52:52;;;;;;;31.50;16.67;;;3.10;75.40;;;;;;5090736;27;46649;-67
2022/01/11 05:55:21;;;;;;;34.77;16.57;;;3.00;75.60;;;;;;5102355;27;46364;-67
2022/01/11 05:57:46;;;;;;;41.15;17.58;;;3.00;75.90;;;;;;5104475;27;46238;-66
2022/01/11 06:00:16;;;;;;;29.60;16.40;;;2.90;76.00;;;;;;5106586;27;45834;-68
2022/01/11 06:02:46;;;;;;;29.90;15.55;;;2.90;76.00;;;;;;5107708;27;46373;-66
2022/01/11 06:05:19;;;;;;;30.35;16.20;;;2.90;75.90;;;;;;5110113;27;46002;-66
2022/01/11 06:07:47;;;;;;;29.80;16.70;;;3.10;75.50;;;;;;5118173;27;46368;-67
2022/01/11 06:10:14;;;;;;;30.80;14.68;;;3.10;75.00;;;;;;5103569;27;46581;-66
2022/01/11 06:12:42;;;;;;;31.75;15.10;;;3.10;74.90;;;;;;5105024;27;48080;-68
2022/01/11 06:15:08;;;;;;;26.52;13.88;;;3.10;74.80;;;;;;5101465;27;46485;-66
2022/01/11 06:17:34;;;;;;;30.00;14.15;;;3.10;74.90;;;;;;5102130;27;46433;-67
2022/01/11 06:20:00;;;;;;;29.03;13.97;;;3.10;75.00;;;;;;5099284;27;46310;-66
2022/01/11 06:22:25;;;;;;;28.47;12.97;;;3.20;75.00;;;;;;5089862;27;47736;-65
2022/01/11 06:24:52;;;;;;;26.20;13.33;;;3.10;74.80;;;;;;5109099;27;46364;-66
2022/01/11 06:27:17;;;;;;;26.35;14.15;;;3.10;74.80;;;;;;5093936;27;46417;-67
2022/01/11 06:29:43;;;;;;;25.23;13.10;;;3.10;75.10;;;;;;5101177;27;46349;-66
2022/01/11 06:32:09;;;;;;;26.57;13.93;;;3.00;75.10;;;;;;5104816;27;47644;-66
2022/01/11 06:34:34;;;;;;;33.37;14.50;;;2.90;75.20;;;;;;5105726;27;46355;-66
2022/01/11 06:37:00;;;;;;;26.83;13.90;;;2.90;75.60;;;;;;5103371;27;46341;-65
2022/01/11 06:39:27;;;;;;;27.67;13.90;;;2.90;75.60;;;;;;5115507;27;46414;-67
2022/01/11 06:41:52;;;;;;;23.95;13.77;;;2.90;75.70;;;;;;5087918;27;47659;-65
2022/01/11 06:44:18;;;;;;;30.30;13.67;;;2.90;75.70;;;;;;5113667;27;46439;-66
2022/01/11 06:46:44;;;;;;;26.47;12.77;;;2.80;75.70;;;;;;5102587;27;46760;-66
2022/01/11 06:49:09;;;;;;;33.93;13.77;;;2.80;75.70;;;;;;5103960;27;46441;-66
2022/01/11 06:51:35;;;;;;;28.00;13.93;;;2.70;76.10;;;;;;5103306;27;47859;-67
2022/01/11 06:54:01;;;;;;;32.47;15.63;;;2.60;76.30;;;;;;5104452;27;46288;-66
2022/01/11 06:56:27;;;;;;;34.07;16.37;;;2.50;77.50;;;;;;5106861;27;46480;-66
2022/01/11 06:58:52;;;;;;;35.53;16.37;;;2.50;76.40;;;;;;5107379;27;46435;-65
2022/01/11 07:01:18;;;;;;;32.50;17.07;;;2.50;76.40;;;;;;5111549;27;46384;-65
2022/01/11 07:03:44;;;;;;;35.30;16.90;;;2.40;76.40;;;;;;5106764;27;45713;-66
2022/01/11 07:06:10;;;;;;;33.80;16.33;;;2.40;76.50;;;;;;5116774;27;46363;-66
2022/01/11 07:08:35;;;;;;;38.10;15.93;;;2.40;76.60;;;;;;5109278;27;46698;-67
2022/01/11 07:11:01;;;;;;;37.50;16.33;;;2.30;76.70;;;;;;5105273;27;46499;-66
2022/01/11 07:13:27;;;;;;;38.07;17.20;;;2.30;76.70;;;;;;5104566;27;46425;-66
2022/01/11 07:15:52;;;;;;;44.20;17.37;;;2.30;76.90;;;;;;5104909;27;46497;-67
2022/01/11 07:18:18;;;;;;;38.70;17.70;;;2.20;77.20;;;;;;5106874;27;46455;-67
2022/01/11 07:20:44;;;;;;;38.33;17.30;;;2.10;77.40;;;;;;5103228;27;46457;-65
2022/01/11 07:23:11;;;;;;;42.43;19.67;;;2.00;77.60;;;;;;5104504;27;46368;-65
2022/01/11 07:25:37;;;;;;;50.33;19.20;;;2.00;77.80;;;;;;5105610;27;46315;-65
2022/01/11 07:28:04;;;;;;;44.80;20.70;;;2.00;78.00;;;;;;5109976;27;46341;-66
2022/01/11 07:30:30;;;;;;;48.78;19.15;;;1.90;78.10;;;;;;5104565;27;46471;-66
2022/01/11 07:33:03;;;;;;;44.30;18.83;;;1.90;78.20;;;;;;5104103;27;46438;-66
2022/01/11 07:35:29;;;;;;;41.53;18.23;;;1.90;78.20;;;;;;5104321;27;46284;-66
2022/01/11 07:37:57;;;;;;;44.83;19.38;;;2.10;78.00;;;;;;5105218;27;46395;-66
2022/01/11 07:40:22;;;;;;;40.75;19.73;;;2.10;77.60;;;;;;5104292;27;48035;-66
2022/01/11 07:42:49;;;;;;;42.97;19.50;;;2.20;77.60;;;;;;5111406;27;46479;-66
2022/01/11 07:45:15;;;;;;;42.17;18.58;;;2.20;77.70;;;;;;5113721;27;46330;-66
2022/01/11 07:47:40;;;;;;;39.20;18.10;;;2.20;78.00;;;;;;5105564;27;46413;-65
2022/01/11 07:50:07;;;;;;;35.93;17.60;;;2.30;78.20;;;;;;5113632;27;46369;-66
2022/01/11 07:52:33;;;;;;;45.22;18.55;;;2.40;78.00;;;;;;5107278;27;45827;-65
2022/01/11 07:55:00;;;;;;;34.88;16.90;;;2.50;77.60;;;;;;5104830;27;46381;-67
2022/01/11 07:57:26;;;;;;;40.85;17.17;;;2.70;78.30;;;;;;5106037;27;46398;-67
2022/01/11 07:59:52;;;;;;;33.70;15.77;;;2.70;77.00;;;;;;5103238;27;47828;-66
2022/01/11 08:02:18;;;;;;;33.92;18.55;;;2.80;77.00;;;;;;5103168;27;46439;-66
2022/01/11 08:04:43;;;;;;;32.47;17.53;;;2.80;77.00;;;;;;5108008;27;46430;-66
2022/01/11 08:07:10;;;;;;;27.23;15.87;;;2.90;77.60;;;;;;5104697;27;46444;-67
2022/01/11 08:09:36;;;;;;;29.30;15.27;;;2.90;77.60;;;;;;5101464;27;46366;-66
2022/01/11 08:12:02;;;;;;;35.03;15.30;;;3.00;77.40;;;;;;5109321;27;46367;-66
2022/01/11 08:14:29;;;;;;;29.90;15.18;;;3.10;77.30;;;;;;5110154;27;46386;-66
2022/01/11 08:16:55;;;;;;;28.20;14.63;;;3.20;76.90;;;;;;5104069;27;46332;-66
2022/01/11 08:19:27;;;;;;;34.65;16.02;;;3.30;76.40;;;;;;5103870;27;46561;-66
2022/01/11 08:21:54;;;;;;;27.55;14.25;;;3.50;76.10;;;;;;5103339;27;46358;-66
2022/01/11 08:24:24;;;;;;;27.48;13.43;;;3.50;75.90;;;;;;5104061;27;46642;-67
2022/01/11 08:26:51;;;;;;;27.65;12.55;;;3.50;75.80;;;;;;5116669;27;46344;-67
2022/01/11 08:29:18;;;;;;;34.55;13.35;;;3.50;75.70;;;;;;5102295;27;48629;-67
2022/01/11 08:31:45;;;;;;;25.58;12.90;;;3.50;75.90;;;;;;5103393;27;46200;-67
2022/01/11 08:34:13;;;;;;;30.88;14.45;;;3.50;75.80;;;;;;5103237;27;46427;-66
2022/01/11 08:36:43;;;;;;;27.52;13.25;;;3.40;75.80;;;;;;5108025;27;46317;-68
2022/01/11 08:39:11;;;;;;;20.17;11.10;;;3.40;75.80;;;;;;5102076;27;47827;-67
2022/01/11 08:41:38;;;;;;;128.27;55.78;;;3.30;76.00;;;;;;5102845;27;46405;-67
2022/01/11 08:44:05;;;;;;;51.17;25.63;;;3.20;76.00;;;;;;5102455;27;46378;-65
2022/01/11 08:46:31;;;;;;;97.30;38.95;;;3.10;76.20;;;;;;5099319;27;45879;-65
2022/01/11 08:48:56;;;;;;;37.00;19.15;;;3.10;76.80;;;;;;5103339;27;47149;-67
2022/01/11 08:51:24;;;;;;;19.00;10.20;;;3.10;76.60;;;;;;5103316;27;46424;-66
2022/01/11 08:53:49;;;;;;;22.52;11.93;;;3.00;76.80;;;;;;5102688;27;46456;-66
2022/01/11 08:56:17;;;;;;;32.43;13.57;;;3.00;76.80;;;;;;5104095;27;46491;-66
2022/01/11 08:58:46;;;;;;;51.95;24.83;;;2.90;77.90;;;;;;5102523;27;48016;-66
2022/01/11 09:01:12;;;;;;;70.68;28.77;;;3.00;76.10;;;;;;5105011;27;46563;-67
2022/01/11 09:03:39;;;;;;;15.20;9.10;;;3.10;75.90;;;;;;5105698;27;46403;-65
2022/01/11 09:06:07;;;;;;;18.73;9.48;;;3.10;75.50;;;;;;5104540;27;46608;-66
2022/01/11 09:08:37;;;;;;;37.38;15.75;;;3.10;75.80;;;;;;5105537;27;46446;-66
2022/01/11 09:11:05;;;;;;;20.98;11.38;;;3.10;75.70;;;;;;5101476;27;46442;-67
2022/01/11 09:13:36;;;;;;;19.77;12.70;;;3.10;75.60;;;;;;5102984;27;46483;-66
2022/01/11 09:16:02;;;;;;;21.60;11.40;;;3.30;75.60;;;;;;5102167;27;46480;-67
2022/01/11 09:18:28;;;;;;;17.15;8.95;;;3.20;75.30;;;;;;5103056;27;48025;-66
2022/01/11 09:20:54;;;;;;;26.87;16.07;;;3.30;75.00;;;;;;5101902;27;46336;-66
2022/01/11 09:23:19;;;;;;;22.20;11.90;;;3.40;74.80;;;;;;5102081;27;46428;-67
2022/01/11 09:25:46;;;;;;;17.00;10.50;;;3.40;74.50;;;;;;5102613;27;46699;-66
2022/01/11 09:28:12;;;;;;;18.08;9.38;;;3.40;74.40;;;;;;5102452;27;47694;-67
2022/01/11 09:30:38;;;;;;;19.03;11.87;;;3.40;74.50;;;;;;5105928;27;46404;-66
2022/01/11 09:33:04;;;;;;;20.15;12.85;;;3.40;74.30;;;;;;5104549;27;45809;-67
2022/01/11 09:35:29;;;;;;;24.67;14.90;;;3.40;74.30;;;;;;5101679;27;46551;-67
2022/01/11 09:37:55;;;;;;;18.57;11.03;;;3.60;74.20;;;;;;5102385;27;48089;-67
2022/01/11 09:40:21;;;;;;;18.50;10.23;;;3.60;73.60;;;;;;5104671;27;46361;-65
2022/01/11 09:42:48;;;;;;;17.37;9.90;;;3.70;73.50;;;;;;5104019;27;46388;-66
2022/01/11 09:45:14;;;;;;;16.65;9.65;;;3.60;73.70;;;;;;5101382;27;46310;-66
2022/01/11 09:47:43;;;;;;;16.58;9.27;;;3.60;73.90;;;;;;5106528;27;48011;-66
2022/01/11 09:50:19;;;;;;;15.40;9.85;;;3.50;74.10;;;;;;5106151;27;46323;-66
2022/01/11 09:52:45;;;;;;;17.02;10.07;;;3.60;74.20;;;;;;5113646;27;45931;-67
2022/01/11 09:55:13;;;;;;;17.87;9.67;;;3.40;74.40;;;;;;5103731;27;46505;-65
2022/01/11 09:57:40;;;;;;;22.92;12.10;;;3.60;74.30;;;;;;5102015;27;46563;-66
2022/01/11 10:00:09;;;;;;;18.83;10.23;;;3.80;74.10;;;;;;5088647;27;46599;-64
2022/01/11 10:02:34;;;;;;;16.55;9.80;;;3.80;74.10;;;;;;5102919;27;46416;-66
2022/01/11 10:05:06;;;;;;;18.23;10.10;;;3.80;74.00;;;;;;5101470;27;46481;-66
2022/01/11 10:07:40;;;;;;;16.52;10.45;;;3.80;73.80;;;;;;5116089;27;46431;-68
2022/01/11 10:10:14;;;;;;;18.67;10.40;;;3.80;73.80;;;;;;5102217;27;46552;-66
2022/01/11 10:12:46;;;;;;;19.35;11.70;;;3.80;73.30;;;;;;5109124;27;46315;-68
2022/01/11 10:15:12;;;;;;;17.40;9.50;;;3.90;73.50;;;;;;5105098;27;46328;-67
2022/01/11 10:17:41;;;;;;;19.37;10.50;;;3.90;73.70;;;;;;5109710;27;46313;-67
2022/01/11 10:20:11;;;;;;;14.77;8.75;;;3.90;72.80;;;;;;5105420;27;46459;-64
2022/01/11 10:22:51;;;;;;;18.23;9.50;;;4.10;72.90;;;;;;5101944;27;46391;-66
2022/01/11 10:25:18;;;;;;;19.43;9.73;;;4.10;72.90;;;;;;5102689;27;46355;-66
2022/01/11 10:27:46;;;;;;;13.30;8.13;;;4.10;72.90;;;;;;5102519;27;47894;-66
2022/01/11 10:30:16;;;;;;;15.43;7.43;;;4.10;72.90;;;;;;5105762;27;46489;-66
2022/01/11 10:32:45;;;;;;;15.68;8.82;;;4.20;73.00;;;;;;5094687;27;46336;-66
2022/01/11 10:35:12;;;;;;;16.00;8.50;;;4.30;72.60;;;;;;5109922;27;45928;-65
2022/01/11 10:37:39;;;;;;;15.95;8.60;;;4.20;72.70;;;;;;5110882;27;48637;-67
2022/01/11 10:40:22;;;;;;;14.85;8.35;;;4.20;72.80;;;;;;5105368;27;46342;-66
2022/01/11 10:43:00;;;;;;;13.02;7.03;;;4.30;72.50;;;;;;5122130;27;45785;-65
2022/01/11 10:45:35;;;;;;;14.20;8.13;;;4.10;71.10;;;;;;5120367;27;46398;-66
2022/01/11 10:48:10;;;;;;;13.07;8.33;;;4.30;70.70;;;;;;5112278;27;48804;-66
2022/01/11 10:50:59;;;;;;;14.10;8.93;;;4.30;70.70;;;;;;5094717;27;46686;-66
2022/01/11 10:53:27;;;;;;;11.82;7.82;;;4.30;70.40;;;;;;5097029;27;46281;-65
2022/01/11 10:55:59;;;;;;;14.33;7.03;;;4.40;69.80;;;;;;5107431;27;46375;-67
2022/01/11 10:58:35;;;;;;;15.80;8.80;;;4.50;69.40;;;;;;5096226;27;49013;-66
2022/01/11 11:01:02;;;;;;;13.25;8.52;;;4.60;68.60;;;;;;5107886;27;46270;-67
2022/01/11 11:03:32;;;;;;;15.20;8.60;;;4.70;68.80;;;;;;5107321;27;46242;-66
2022/01/11 11:06:10;;;;;;;16.90;8.67;;;4.70;68.20;;;;;;5096050;27;46577;-65
2022/01/11 11:08:40;;;;;;;15.87;7.70;;;4.80;67.30;;;;;;5110060;27;48058;-65
2022/01/11 11:11:12;;;;;;;10.52;6.95;;;4.80;67.20;;;;;;5091583;27;46691;-66
2022/01/11 11:13:40;;;;;;;11.40;7.87;;;4.80;66.70;;;;;;5110376;27;46469;-67
2022/01/11 11:16:28;;;;;;;13.37;8.77;;;4.90;66.70;;;;;;5104514;27;46527;-66
2022/01/11 11:18:59;;;;;;;13.70;7.70;;;4.90;66.70;;;;;;5120296;27;48090;-65
2022/01/11 11:21:24;;;;;;;13.17;7.97;;;5.00;66.30;;;;;;5109272;27;46375;-66
2022/01/11 11:23:56;;;;;;;12.70;7.50;;;5.10;67.00;;;;;;5107498;27;46330;-65
2022/01/11 11:26:24;;;;;;;11.50;6.97;;;5.10;66.00;;;;;;5102941;27;46479;-66
2022/01/11 11:28:50;;;;;;;16.60;5.78;;;5.40;65.30;;;;;;5107137;27;49159;-66
2022/01/11 11:31:16;;;;;;;10.85;6.75;;;5.40;64.50;;;;;;5107143;27;46404;-66
2022/01/11 11:33:43;;;;;;;12.10;7.30;;;5.30;64.70;;;;;;5111202;27;46370;-66
2022/01/11 11:36:12;;;;;;;8.20;5.17;;;5.30;64.30;;;;;;5109124;27;46411;-65
2022/01/11 11:38:52;;;;;;;10.90;7.17;;;5.20;63.40;;;;;;5102808;27;48693;-66
2022/01/11 11:41:19;;;;;;;9.50;5.53;;;5.10;62.90;;;;;;5105412;27;46426;-65
2022/01/11 11:44:12;;;;;;;13.03;6.53;;;5.10;63.20;;;;;;5107298;27;46430;-67
2022/01/11 11:46:59;;;;;;;9.57;5.20;;;5.10;63.20;;;;;;5095671;27;46508;-66
2022/01/11 11:49:48;;;;;;;11.13;5.83;;;5.00;62.30;;;;;;5096861;27;48040;-65
2022/01/11 11:52:38;;;;;;;10.53;5.87;;;5.00;62.30;;;;;;5102748;27;46388;-65
2022/01/11 11:55:24;;;;;;;7.97;5.40;;;4.90;62.10;;;;;;5103372;27;46389;-65
2022/01/11 11:57:53;;;;;;;10.07;5.83;;;4.90;61.70;;;;;;5105056;27;46691;-67
2022/01/11 12:00:21;;;;;;;10.30;6.47;;;4.80;61.80;;;;;;5104340;27;48038;-66
2022/01/11 12:02:51;;;;;;;9.77;6.13;;;4.70;61.80;;;;;;5106153;27;46360;-66
2022/01/11 12:05:38;;;;;;;8.00;5.60;;;4.80;62.00;;;;;;5105036;27;46300;-65
2022/01/11 12:08:43;;;;;;;8.60;5.60;;;4.80;61.80;;;;;;5103227;27;46485;-65
2022/01/11 12:11:11;;;;;;;10.07;6.63;;;4.80;61.70;;;;;;5105900;27;46823;-66
2022/01/11 12:13:49;;;;;;;8.97;5.60;;;4.90;61.60;;;;;;5104288;27;46508;-65
2022/01/11 12:16:24;;;;;;;8.57;5.30;;;4.90;61.20;;;;;;5110329;27;46456;-66
2022/01/11 12:18:57;;;;;;;9.30;5.40;;;5.00;61.10;;;;;;5110935;27;46323;-67
2022/01/11 12:21:25;;;;;;;8.57;5.90;;;5.00;61.10;;;;;;5108249;27;48724;-67
2022/01/11 12:23:53;;;;;;;9.93;5.78;;;5.10;61.20;;;;;;5109559;27;46372;-67
2022/01/11 12:26:26;;;;;;;10.75;6.60;;;5.10;61.20;;;;;;5103590;27;46419;-65
2022/01/11 12:29:11;;;;;;;9.30;5.67;;;5.20;61.30;;;;;;5112727;27;45878;-66
2022/01/11 12:31:53;;;;;;;13.80;6.03;;;5.30;61.30;;;;;;5103408;27;48166;-64
2022/01/11 12:34:39;;;;;;;9.80;6.05;;;5.30;60.70;;;;;;5091001;27;46532;-66
2022/01/11 12:37:05;;;;;;;9.30;6.40;;;5.40;60.60;;;;;;5123345;27;46631;-66
2022/01/11 12:39:52;;;;;;;11.10;6.80;;;5.60;60.60;;;;;;5109601;27;46394;-65
2022/01/11 12:42:26;;;;;;;9.80;6.10;;;5.60;59.90;;;;;;5111241;27;48228;-65
2022/01/11 12:47:17;;;;;;;10.63;5.40;;;5.70;60.00;;;;;;5104431;27;46199;-66
2022/01/11 12:50:03;;;;;;;7.10;5.40;;;5.70;60.00;;;;;;5102458;27;45989;-66